Terminal Aerodrome Forecast
Issued by NWS Jackson, KY

Home | Current Version | Previous Version | Text Only | Print | Product List | Glossary On
Versions: 1 2 3 4 5 6 7 8 9 10 11 12 13
459
FTUS43 KJKL 222325
TAFLOZ
TAF
KLOZ 222325Z 2300/2324 30004KT P6SM SCT045 BKN130
     FM230500 00000KT 5SM BR SCT045 BKN250
     FM231300 00000KT 6SM BR SCT045 BKN250
     FM231600 00000KT P6SM VCTS FEW045CB SCT250=

USA.gov is the U.S. government's official web portal to all federal, state and local government web resources and services.